createdAt,value
2022-09-27T00:02:10.207Z,11.30
2022-09-27T00:04:36.934Z,11.30
2022-09-27T00:07:03.516Z,11.20
2022-09-27T00:09:30.095Z,11.20
2022-09-27T00:11:56.652Z,11.30
2022-09-27T00:14:23.229Z,11.30
2022-09-27T00:16:49.777Z,11.30
2022-09-27T00:19:18.928Z,11.30
2022-09-27T00:21:46.737Z,11.20
2022-09-27T00:24:15.597Z,11.20
2022-09-27T00:26:42.196Z,11.20
2022-09-27T00:29:09.918Z,11.30
2022-09-27T00:31:37.529Z,11.30
2022-09-27T00:34:05.301Z,11.20
2022-09-27T00:36:33.221Z,11.20
2022-09-27T00:39:00.658Z,11.20
2022-09-27T00:41:33.298Z,11.20
2022-09-27T00:44:23.041Z,11.20
2022-09-27T00:47:00.720Z,11.20
2022-09-27T00:49:38.449Z,11.30
2022-09-27T00:52:13.175Z,11.20
2022-09-27T00:54:44.111Z,11.20
2022-09-27T00:57:11.017Z,11.20
2022-09-27T00:59:46.154Z,11.20
2022-09-27T01:02:12.844Z,11.20
2022-09-27T01:04:40.701Z,11.20
2022-09-27T01:07:07.359Z,11.20
2022-09-27T01:09:34.692Z,11.20
2022-09-27T01:12:35.167Z,11.20
2022-09-27T01:15:15.235Z,11.10
2022-09-27T01:17:56.367Z,11.10
2022-09-27T01:20:41.038Z,11.20
2022-09-27T01:23:45.266Z,11.10
2022-09-27T01:26:53.845Z,11.10
2022-09-27T01:29:27.407Z,11.10
2022-09-27T01:32:15.079Z,11.00
2022-09-27T01:34:54.053Z,11.00
2022-09-27T01:37:48.457Z,11.10
2022-09-27T01:40:24.545Z,11.00
2022-09-27T01:43:02.507Z,11.00
2022-09-27T01:45:31.838Z,10.90
2022-09-27T01:48:07.526Z,10.90
2022-09-27T01:50:50.023Z,10.90
2022-09-27T01:53:23.869Z,10.80
2022-09-27T01:55:53.800Z,10.80
2022-09-27T01:58:26.282Z,10.70
2022-09-27T02:00:55.211Z,10.70
2022-09-27T02:03:26.609Z,10.60
2022-09-27T02:05:59.352Z,10.60
2022-09-27T02:08:32.999Z,10.50
2022-09-27T02:11:05.003Z,10.50
2022-09-27T02:13:44.542Z,10.40
2022-09-27T02:16:39.529Z,10.40
2022-09-27T02:19:27.007Z,10.40
2022-09-27T02:22:34.033Z,10.40
2022-09-27T02:25:11.914Z,10.40
2022-09-27T02:28:21.716Z,10.40
2022-09-27T02:30:48.334Z,10.30
2022-09-27T02:33:14.967Z,10.30
2022-09-27T02:35:41.567Z,10.30
2022-09-27T02:38:08.453Z,10.30
2022-09-27T02:40:43.035Z,10.20
2022-09-27T02:43:09.670Z,10.20
2022-09-27T02:45:55.605Z,10.20
2022-09-27T02:48:30.443Z,10.20
2022-09-27T02:51:22.334Z,10.10
2022-09-27T02:53:54.472Z,10.10
2022-09-27T02:56:26.289Z,10.10
2022-09-27T02:59:07.192Z,10.10
2022-09-27T03:01:57.221Z,10.00
2022-09-27T03:04:31.103Z,10.00
2022-09-27T03:06:59.887Z,10.10
2022-09-27T03:09:29.841Z,10.10
2022-09-27T03:11:56.418Z,10.10
2022-09-27T03:14:23.024Z,10.00
2022-09-27T03:16:49.644Z,10.00
2022-09-27T03:19:16.353Z,10.00
2022-09-27T03:21:43.104Z,10.00
2022-09-27T03:24:09.689Z,10.00
2022-09-27T03:26:36.257Z,10.00
2022-09-27T03:29:02.811Z,10.00
2022-09-27T03:31:29.497Z,10.00
2022-09-27T03:33:56.117Z,10.10
2022-09-27T03:36:22.721Z,10.10
2022-09-27T03:38:49.284Z,10.00
2022-09-27T03:41:16.069Z,10.10
2022-09-27T03:43:42.631Z,10.10
2022-09-27T03:46:09.244Z,10.10
2022-09-27T03:48:35.927Z,10.10
2022-09-27T03:51:02.487Z,10.10
2022-09-27T03:53:29.051Z,10.10
2022-09-27T03:55:55.660Z,10.10
2022-09-27T03:58:22.233Z,10.10
2022-09-27T04:00:49.871Z,10.10
2022-09-27T04:03:16.474Z,10.10
2022-09-27T04:05:43.036Z,10.10
2022-09-27T04:08:09.613Z,10.10
2022-09-27T04:10:36.186Z,10.10
2022-09-27T04:13:02.786Z,10.10
2022-09-27T04:15:29.330Z,10.20
2022-09-27T04:17:55.950Z,10.20
2022-09-27T04:20:22.528Z,10.20
2022-09-27T04:22:49.085Z,10.10
2022-09-27T04:25:15.678Z,10.20
2022-09-27T04:27:46.445Z,10.10
2022-09-27T04:30:14.279Z,10.10
2022-09-27T04:32:45.013Z,10.20
2022-09-27T04:35:12.534Z,10.20
2022-09-27T04:37:39.080Z,10.20
2022-09-27T04:40:05.994Z,10.20
2022-09-27T04:42:32.560Z,10.20
2022-09-27T04:44:59.158Z,10.10
2022-09-27T04:47:25.735Z,10.10
2022-09-27T04:49:52.296Z,10.10
2022-09-27T04:52:18.868Z,10.10
2022-09-27T04:54:45.460Z,10.10
2022-09-27T04:57:12.023Z,10.10
2022-09-27T04:59:38.636Z,10.10
2022-09-27T05:02:05.228Z,10.10
2022-09-27T05:04:31.788Z,10.10
2022-09-27T05:06:58.376Z,10.10
2022-09-27T05:09:24.945Z,10.10
2022-09-27T05:11:51.495Z,10.20
2022-09-27T05:14:18.127Z,10.20
2022-09-27T05:16:44.829Z,10.20
2022-09-27T05:19:11.551Z,10.20
2022-09-27T05:21:38.165Z,10.10
2022-09-27T05:24:04.826Z,10.10
2022-09-27T05:26:31.384Z,10.10
2022-09-27T05:28:57.929Z,10.10
2022-09-27T05:31:24.632Z,10.10
2022-09-27T05:33:51.239Z,10.10
2022-09-27T05:36:17.814Z,10.10
2022-09-27T05:38:44.371Z,10.10
2022-09-27T05:41:11.025Z,10.10
2022-09-27T05:43:37.623Z,10.10
2022-09-27T05:46:04.408Z,10.20
2022-09-27T05:48:31.739Z,10.20
2022-09-27T05:50:58.575Z,10.20
2022-09-27T05:53:25.153Z,10.20
2022-09-27T05:55:51.726Z,10.30
2022-09-27T05:58:18.291Z,10.30
2022-09-27T06:00:44.904Z,10.30
2022-09-27T06:03:12.955Z,10.20
2022-09-27T06:05:40.405Z,10.20
2022-09-27T06:08:09.961Z,10.20
2022-09-27T06:10:38.355Z,10.20
2022-09-27T06:13:13.808Z,10.30
2022-09-27T06:15:42.162Z,10.40
2022-09-27T06:18:13.868Z,10.50
2022-09-27T06:20:40.828Z,10.60
2022-09-27T06:23:16.335Z,10.50
2022-09-27T06:25:43.293Z,10.50
2022-09-27T06:28:10.199Z,10.30
2022-09-27T06:30:41.355Z,10.40
2022-09-27T06:33:10.262Z,10.30
2022-09-27T06:35:36.862Z,10.40
2022-09-27T06:38:07.851Z,10.40
2022-09-27T06:40:35.479Z,10.40
2022-09-27T06:43:03.746Z,10.40
2022-09-27T06:45:30.543Z,10.40
2022-09-27T06:47:57.701Z,10.40
2022-09-27T06:50:24.332Z,10.40
2022-09-27T06:52:50.968Z,10.40
2022-09-27T06:55:17.750Z,10.50
2022-09-27T06:57:44.341Z,10.60
2022-09-27T07:00:11.846Z,10.60
2022-09-27T07:02:38.428Z,10.70
2022-09-27T07:05:05.460Z,10.60
2022-09-27T07:07:32.035Z,10.70
2022-09-27T07:09:58.579Z,10.60
2022-09-27T07:12:25.140Z,10.60
2022-09-27T07:14:51.940Z,10.60
2022-09-27T07:17:18.635Z,10.60
2022-09-27T07:19:45.927Z,10.60
2022-09-27T07:22:12.826Z,10.60
2022-09-27T07:24:39.501Z,10.50
2022-09-27T07:27:06.071Z,10.50
2022-09-27T07:29:32.635Z,10.50
2022-09-27T07:31:59.220Z,10.30
2022-09-27T07:34:25.787Z,10.30
2022-09-27T07:36:52.427Z,10.20
2022-09-27T07:39:19.248Z,10.20
2022-09-27T07:41:46.077Z,10.00
2022-09-27T07:44:12.679Z,10.00
2022-09-27T07:46:39.270Z,10.00
2022-09-27T07:49:06.108Z,9.90
2022-09-27T07:51:32.865Z,9.90
2022-09-27T07:54:01.735Z,9.90
2022-09-27T07:56:30.100Z,9.90
2022-09-27T07:58:57.008Z,9.90
2022-09-27T08:01:24.012Z,10.00
2022-09-27T08:03:50.626Z,10.10
2022-09-27T08:06:17.522Z,10.10
2022-09-27T08:08:44.142Z,10.00
2022-09-27T08:11:13.001Z,10.10
2022-09-27T08:13:39.907Z,10.30
2022-09-27T08:16:06.919Z,10.40
2022-09-27T08:18:33.630Z,10.50
2022-09-27T08:21:01.119Z,10.60
2022-09-27T08:23:27.979Z,10.70
2022-09-27T08:25:54.838Z,10.70
2022-09-27T08:28:21.538Z,10.70
2022-09-27T08:30:49.304Z,10.60
2022-09-27T08:33:16.225Z,10.60
2022-09-27T08:35:43.047Z,10.40
2022-09-27T08:38:10.706Z,10.40
2022-09-27T08:40:59.474Z,10.50
2022-09-27T08:43:26.026Z,10.60
2022-09-27T08:46:02.146Z,10.80
2022-09-27T08:48:30.375Z,10.90
2022-09-27T08:50:58.393Z,11.00
2022-09-27T08:53:38.062Z,11.00
2022-09-27T08:56:09.004Z,11.00
2022-09-27T08:58:40.803Z,11.10
2022-09-27T09:01:14.630Z,11.20
2022-09-27T09:03:53.932Z,11.10
2022-09-27T09:06:40.775Z,11.20
2022-09-27T09:09:16.672Z,11.30
2022-09-27T09:12:10.480Z,11.40
2022-09-27T09:14:49.302Z,11.30
2022-09-27T09:17:57.568Z,11.30
2022-09-27T09:20:53.683Z,11.20
2022-09-27T09:23:49.346Z,11.20
2022-09-27T09:26:48.998Z,11.30
2022-09-27T09:29:30.561Z,11.30
2022-09-27T09:32:14.012Z,11.30
2022-09-27T09:34:47.574Z,11.30
2022-09-27T09:37:21.205Z,11.30
2022-09-27T09:40:09.217Z,11.20
2022-09-27T09:42:42.360Z,11.40
2022-09-27T09:45:35.141Z,11.50
2022-09-27T09:48:11.307Z,11.50
2022-09-27T09:50:48.289Z,11.50
2022-09-27T09:53:25.891Z,11.40
2022-09-27T09:56:21.858Z,11.30
2022-09-27T09:59:01.238Z,11.60
2022-09-27T10:01:42.815Z,11.70
2022-09-27T10:04:19.273Z,11.70
2022-09-27T10:06:46.621Z,11.70
2022-09-27T10:09:16.337Z,11.70
2022-09-27T10:11:45.853Z,11.70
2022-09-27T10:14:15.864Z,11.70
2022-09-27T10:16:47.571Z,11.60
2022-09-27T10:19:18.342Z,11.70
2022-09-27T10:21:48.295Z,11.70
2022-09-27T10:24:18.709Z,11.90
2022-09-27T10:26:48.174Z,11.70
2022-09-27T10:29:18.898Z,11.60
2022-09-27T10:31:47.741Z,11.60
2022-09-27T10:34:27.864Z,11.50
2022-09-27T10:37:16.605Z,11.40
2022-09-27T10:39:45.295Z,11.50
2022-09-27T10:42:30.373Z,11.50
2022-09-27T10:44:56.981Z,11.70
2022-09-27T10:47:25.336Z,12.10
2022-09-27T10:49:52.589Z,12.40
2022-09-27T10:52:22.366Z,12.80
2022-09-27T10:55:04.615Z,13.10
2022-09-27T10:57:31.814Z,13.20
2022-09-27T11:00:26.608Z,13.00
2022-09-27T11:02:59.929Z,12.60
2022-09-27T11:05:26.463Z,12.30
2022-09-27T11:07:55.496Z,12.30
2022-09-27T11:10:26.029Z,12.20
2022-09-27T11:13:18.604Z,12.10
2022-09-27T11:16:03.769Z,12.10
2022-09-27T11:19:14.646Z,11.90
2022-09-27T11:21:50.832Z,12.00
2022-09-27T11:24:45.524Z,11.50
2022-09-27T11:27:32.724Z,11.20
2022-09-27T11:30:19.770Z,11.00
2022-09-27T11:33:01.365Z,11.10
2022-09-27T11:36:32.444Z,11.00
2022-09-27T11:39:04.479Z,10.90
2022-09-27T11:42:08.146Z,11.20
2022-09-27T11:45:19.902Z,11.30
2022-09-27T11:48:08.221Z,11.70
2022-09-27T11:50:38.153Z,11.60
2022-09-27T11:53:49.305Z,11.50
2022-09-27T11:56:53.203Z,11.40
2022-09-27T11:59:24.714Z,11.40
2022-09-27T12:02:13.408Z,11.30
2022-09-27T12:04:45.967Z,11.20
2022-09-27T12:07:40.713Z,11.10
2022-09-27T12:10:14.339Z,11.10
2022-09-27T12:12:44.452Z,11.40
2022-09-27T12:15:28.235Z,11.40
2022-09-27T12:18:02.268Z,11.80
2022-09-27T12:20:35.877Z,12.30
2022-09-27T12:23:11.456Z,12.40
2022-09-27T12:25:41.196Z,12.70
2022-09-27T12:28:28.484Z,13.10
2022-09-27T12:31:27.621Z,13.40
2022-09-27T12:34:18.741Z,13.60
2022-09-27T12:36:53.407Z,13.90
2022-09-27T12:39:29.187Z,14.00
2022-09-27T12:42:03.023Z,13.70
2022-09-27T12:44:37.776Z,13.60
2022-09-27T12:47:11.913Z,13.80
2022-09-27T12:49:45.322Z,13.70
2022-09-27T12:52:21.742Z,14.00
2022-09-27T12:55:03.405Z,14.00
2022-09-27T12:58:11.340Z,14.10
2022-09-27T13:01:19.995Z,14.30
2022-09-27T13:03:57.457Z,13.80
2022-09-27T13:07:08.614Z,13.70
2022-09-27T13:10:10.172Z,13.60
2022-09-27T13:12:37.517Z,13.30
2022-09-27T13:15:23.211Z,13.40
2022-09-27T13:17:51.799Z,13.60
2022-09-27T13:20:36.862Z,13.90
2022-09-27T13:23:17.841Z,14.10
2022-09-27T13:25:58.727Z,14.30
2022-09-27T13:28:31.123Z,14.30
2022-09-27T13:30:58.950Z,14.40
2022-09-27T13:33:48.316Z,14.40
2022-09-27T13:36:20.647Z,14.70
2022-09-27T13:38:56.116Z,14.60
2022-09-27T13:41:22.876Z,14.50
2022-09-27T13:44:08.015Z,14.30
2022-09-27T13:46:36.400Z,13.80
2022-09-27T13:49:18.320Z,13.60
2022-09-27T13:51:56.242Z,13.50
2022-09-27T13:54:53.853Z,13.40
2022-09-27T13:57:42.338Z,13.30
2022-09-27T14:00:20.433Z,13.20
2022-09-27T14:02:55.662Z,13.00
2022-09-27T14:05:39.998Z,13.00
2022-09-27T14:08:14.276Z,12.90
2022-09-27T14:10:43.841Z,12.80
2022-09-27T14:13:16.510Z,12.60
2022-09-27T14:15:45.385Z,12.50
2022-09-27T14:18:12.523Z,12.50
2022-09-27T14:20:42.397Z,12.40
2022-09-27T14:23:36.111Z,12.20
2022-09-27T14:26:02.692Z,12.10
2022-09-27T14:28:31.988Z,12.10
2022-09-27T14:31:15.673Z,12.00
2022-09-27T14:33:42.400Z,12.00
2022-09-27T14:36:29.765Z,12.00
2022-09-27T14:38:56.527Z,12.00
2022-09-27T14:41:23.933Z,12.00
2022-09-27T14:43:50.646Z,12.10
2022-09-27T14:46:29.645Z,12.00
2022-09-27T14:48:56.461Z,12.00
2022-09-27T14:51:33.932Z,12.00
2022-09-27T14:54:10.415Z,11.90
2022-09-27T14:56:51.410Z,11.70
2022-09-27T15:02:19.311Z,11.50
2022-09-27T15:04:48.561Z,11.40
2022-09-27T15:07:15.254Z,11.20
2022-09-27T15:09:42.692Z,11.10
2022-09-27T15:12:13.074Z,10.90
2022-09-27T15:14:40.471Z,10.80
2022-09-27T15:17:20.558Z,10.80
2022-09-27T15:20:17.935Z,10.80
2022-09-27T15:22:44.713Z,10.70
2022-09-27T15:25:19.754Z,10.60
2022-09-27T15:27:49.193Z,10.20
2022-09-27T15:30:40.986Z,10.10
2022-09-27T15:33:29.502Z,10.10
2022-09-27T15:35:59.620Z,9.90
2022-09-27T15:38:40.986Z,9.80
2022-09-27T15:41:13.293Z,9.80
2022-09-27T15:43:44.355Z,9.70
2022-09-27T15:46:29.414Z,9.70
2022-09-27T15:49:17.977Z,9.70
2022-09-27T15:51:46.439Z,9.60
2022-09-27T15:54:13.018Z,9.60
2022-09-27T15:56:40.244Z,9.60
2022-09-27T15:59:16.684Z,9.70
2022-09-27T16:01:43.490Z,9.70
2022-09-27T16:04:10.180Z,9.70
2022-09-27T16:06:36.790Z,9.70
2022-09-27T16:09:03.424Z,9.70
2022-09-27T16:11:30.006Z,9.70
2022-09-27T16:13:56.577Z,9.70
2022-09-27T16:16:23.299Z,9.70
2022-09-27T16:18:50.027Z,9.70
2022-09-27T16:21:16.764Z,9.70
2022-09-27T16:23:43.315Z,9.80
2022-09-27T16:26:09.910Z,9.70
2022-09-27T16:28:36.483Z,9.80
2022-09-27T16:31:05.179Z,9.70
2022-09-27T16:33:33.928Z,9.70
2022-09-27T16:36:04.727Z,9.80
2022-09-27T16:38:31.316Z,9.80
2022-09-27T16:41:02.281Z,9.80
2022-09-27T16:43:29.738Z,9.80
2022-09-27T16:46:03.080Z,9.80
2022-09-27T16:48:29.666Z,9.80
2022-09-27T16:50:56.251Z,9.80
2022-09-27T16:53:22.852Z,9.80
2022-09-27T16:55:49.441Z,9.80
2022-09-27T16:58:16.035Z,9.70
2022-09-27T17:00:42.624Z,9.70
2022-09-27T17:03:09.255Z,9.60
2022-09-27T17:05:35.834Z,9.50
2022-09-27T17:08:02.505Z,9.50
2022-09-27T17:10:29.121Z,9.40
2022-09-27T17:12:55.745Z,9.30
2022-09-27T17:15:22.323Z,9.40
2022-09-27T17:17:49.871Z,9.40
2022-09-27T17:20:17.247Z,9.30
2022-09-27T17:22:44.069Z,9.30
2022-09-27T17:25:10.668Z,9.30
2022-09-27T17:27:37.266Z,9.20
2022-09-27T17:30:04.803Z,9.20
2022-09-27T17:32:31.404Z,9.20
2022-09-27T17:34:57.977Z,9.20
2022-09-27T17:37:24.601Z,9.20
2022-09-27T17:39:51.465Z,9.10
2022-09-27T17:42:21.800Z,9.10
2022-09-27T17:44:48.366Z,9.20
2022-09-27T17:47:15.485Z,9.20
2022-09-27T17:49:42.289Z,9.10
2022-09-27T17:52:09.308Z,9.10
2022-09-27T17:54:36.002Z,9.10
2022-09-27T17:57:02.699Z,9.10
2022-09-27T17:59:29.944Z,9.20
2022-09-27T18:01:57.150Z,9.10
2022-09-27T18:04:24.093Z,9.10
2022-09-27T18:06:50.907Z,9.00
2022-09-27T18:09:18.306Z,9.00
2022-09-27T18:11:45.190Z,9.00
2022-09-27T18:14:13.495Z,9.00
2022-09-27T18:16:42.279Z,9.00
2022-09-27T18:19:13.663Z,9.00
2022-09-27T18:21:40.890Z,9.00
2022-09-27T18:24:10.280Z,9.00
2022-09-27T18:26:37.148Z,9.00
2022-09-27T18:29:17.556Z,9.00
2022-09-27T18:31:48.464Z,9.00
2022-09-27T18:34:17.955Z,9.00
2022-09-27T18:36:45.460Z,9.00
2022-09-27T18:39:15.833Z,9.00
2022-09-27T18:41:43.141Z,9.00
2022-09-27T18:44:12.364Z,9.00
2022-09-27T18:46:39.300Z,9.00
2022-09-27T18:49:09.450Z,9.00
2022-09-27T18:51:36.403Z,9.00
2022-09-27T18:54:07.286Z,9.00
2022-09-27T18:56:33.867Z,9.00
2022-09-27T18:59:00.442Z,9.10
2022-09-27T19:01:27.183Z,9.10
2022-09-27T19:03:53.807Z,9.10
2022-09-27T19:06:22.694Z,9.10
2022-09-27T19:08:56.979Z,9.10
2022-09-27T19:11:23.575Z,9.20
2022-09-27T19:13:52.503Z,9.20
2022-09-27T19:16:20.211Z,9.10
2022-09-27T19:18:47.319Z,9.20
2022-09-27T19:21:35.427Z,9.10
2022-09-27T19:24:02.121Z,9.10
2022-09-27T19:26:28.741Z,9.10
2022-09-27T19:28:55.432Z,9.10
2022-09-27T19:31:24.302Z,9.00
2022-09-27T19:33:55.006Z,9.00
2022-09-27T19:36:24.241Z,9.00
2022-09-27T19:38:50.846Z,9.10
2022-09-27T19:41:18.090Z,9.10
2022-09-27T19:43:49.745Z,9.10
2022-09-27T19:46:17.538Z,9.10
2022-09-27T19:48:45.396Z,9.00
2022-09-27T19:51:20.310Z,9.10
2022-09-27T19:53:47.460Z,9.10
2022-09-27T19:56:14.514Z,9.10
2022-09-27T19:58:42.614Z,9.10
2022-09-27T20:01:14.663Z,9.10
2022-09-27T20:03:43.389Z,9.10
2022-09-27T20:06:13.408Z,9.00
2022-09-27T20:08:40.387Z,9.00
2022-09-27T20:11:12.816Z,9.00
2022-09-27T20:13:40.367Z,9.00
2022-09-27T20:16:16.169Z,9.00
2022-09-27T20:18:45.861Z,9.10
2022-09-27T20:21:13.108Z,9.10
2022-09-27T20:23:39.861Z,9.10
2022-09-27T20:26:11.989Z,9.10
2022-09-27T20:28:43.872Z,9.20
2022-09-27T20:31:12.388Z,9.10
2022-09-27T20:33:39.195Z,9.10
2022-09-27T20:36:05.997Z,9.10
2022-09-27T20:38:32.567Z,9.00
2022-09-27T20:40:59.212Z,9.10
2022-09-27T20:43:25.852Z,9.20
2022-09-27T20:45:52.780Z,9.10
2022-09-27T20:48:19.350Z,9.10
2022-09-27T20:50:46.070Z,8.90
2022-09-27T20:53:12.610Z,8.80
2022-09-27T20:55:39.179Z,8.60
2022-09-27T20:58:05.752Z,8.60
2022-09-27T21:00:32.415Z,8.60
2022-09-27T21:02:59.023Z,8.60
2022-09-27T21:05:25.577Z,8.60
2022-09-27T21:07:53.265Z,8.60
2022-09-27T21:10:19.826Z,8.60
2022-09-27T21:12:46.383Z,8.60
2022-09-27T21:15:12.940Z,8.50
2022-09-27T21:17:39.509Z,8.60
2022-09-27T21:20:06.355Z,8.60
2022-09-27T21:22:32.904Z,8.60
2022-09-27T21:24:59.465Z,8.60
2022-09-27T21:27:26.021Z,8.60
2022-09-27T21:29:52.554Z,8.60
2022-09-27T21:32:19.132Z,8.50
2022-09-27T21:34:45.669Z,8.50
2022-09-27T21:37:12.227Z,8.50
2022-09-27T21:39:38.810Z,8.60
2022-09-27T21:42:05.550Z,8.60
2022-09-27T21:44:32.125Z,8.60
2022-09-27T21:46:58.795Z,8.60
2022-09-27T21:49:25.386Z,8.60
2022-09-27T21:51:51.977Z,8.60
2022-09-27T21:54:18.537Z,8.60
2022-09-27T21:56:45.109Z,8.60
2022-09-27T21:59:14.158Z,8.60
2022-09-27T22:01:43.171Z,8.70
2022-09-27T22:04:09.787Z,8.70
2022-09-27T22:06:38.018Z,8.60
2022-09-27T22:09:08.312Z,8.60
2022-09-27T22:11:38.502Z,8.60
2022-09-27T22:14:05.558Z,8.60
2022-09-27T22:16:32.191Z,8.60
2022-09-27T22:18:59.163Z,8.60
2022-09-27T22:21:30.576Z,8.50
2022-09-27T22:24:01.904Z,8.60
2022-09-27T22:26:34.636Z,8.60
2022-09-27T22:29:01.490Z,8.50
2022-09-27T22:31:28.510Z,8.50
2022-09-27T22:33:57.832Z,8.40
2022-09-27T22:36:25.087Z,8.40
2022-09-27T22:38:52.313Z,8.40
2022-09-27T22:41:19.166Z,8.40
2022-09-27T22:43:46.078Z,8.40
2022-09-27T22:46:13.269Z,8.40
2022-09-27T22:48:40.462Z,8.40
2022-09-27T22:51:07.749Z,8.40
2022-09-27T22:53:34.747Z,8.40
2022-09-27T22:56:04.631Z,8.40
2022-09-27T22:58:31.901Z,8.40
2022-09-27T23:00:58.710Z,8.50
2022-09-27T23:03:25.498Z,8.50
2022-09-27T23:05:52.151Z,8.50
2022-09-27T23:08:18.716Z,8.50
2022-09-27T23:10:45.268Z,8.50
2022-09-27T23:13:11.830Z,8.60
2022-09-27T23:15:38.379Z,8.50
2022-09-27T23:18:05.067Z,8.60
2022-09-27T23:20:31.724Z,8.50
2022-09-27T23:22:58.277Z,8.60
2022-09-27T23:25:24.877Z,8.60
2022-09-27T23:27:51.496Z,8.60
2022-09-27T23:30:20.091Z,8.60
2022-09-27T23:32:52.729Z,8.60
2022-09-27T23:35:19.287Z,8.60
2022-09-27T23:37:45.845Z,8.60
2022-09-27T23:40:12.571Z,8.60
2022-09-27T23:42:39.127Z,8.60
2022-09-27T23:45:06.162Z,8.60
2022-09-27T23:47:32.723Z,8.70
2022-09-27T23:49:59.292Z,8.70
2022-09-27T23:52:26.585Z,8.70
2022-09-27T23:54:53.218Z,8.70
2022-09-27T23:57:19.805Z,8.70
2022-09-27T23:59:46.383Z,8.70
